sensor_id;sensor_type;location;lat;lon;timestamp;temperature;humidity
3478;DHT22;37937;61.490;23.506;2023-02-26T00:02:07;-6.60;99.90
3478;DHT22;37937;61.490;23.506;2023-02-26T00:04:34;-6.70;99.90
3478;DHT22;37937;61.490;23.506;2023-02-26T00:06:59;-6.60;99.90
3478;DHT22;37937;61.490;23.506;2023-02-26T00:09:25;-6.60;99.90
3478;DHT22;37937;61.490;23.506;2023-02-26T00:11:51;-6.60;99.90
3478;DHT22;37937;61.490;23.506;2023-02-26T00:14:17;-6.50;99.90
3478;DHT22;37937;61.490;23.506;2023-02-26T00:16:43;-6.50;99.90
3478;DHT22;37937;61.490;23.506;2023-02-26T00:19:11;-6.50;99.90
3478;DHT22;37937;61.490;23.506;2023-02-26T00:21:37;-6.50;99.90
3478;DHT22;37937;61.490;23.506;2023-02-26T00:24:03;-6.40;99.90
3478;DHT22;37937;61.490;23.506;2023-02-26T00:26:31;-6.30;99.90
3478;DHT22;37937;61.490;23.506;2023-02-26T00:28:57;-6.40;99.90
3478;DHT22;37937;61.490;23.506;2023-02-26T00:31:23;-6.20;99.90
3478;DHT22;37937;61.490;23.506;2023-02-26T00:33:49;-6.10;99.90
3478;DHT22;37937;61.490;23.506;2023-02-26T00:38:44;-6.20;99.90
3478;DHT22;37937;61.490;23.506;2023-02-26T00:41:14;-6.40;99.90
3478;DHT22;37937;61.490;23.506;2023-02-26T00:43:40;-6.40;99.90
3478;DHT22;37937;61.490;23.506;2023-02-26T00:53:51;-6.50;99.90
3478;DHT22;37937;61.490;23.506;2023-02-26T00:56:19;-6.50;99.90
3478;DHT22;37937;61.490;23.506;2023-02-26T00:58:45;-6.60;99.90
3478;DHT22;37937;61.490;23.506;2023-02-26T01:01:10;-6.60;99.90
3478;DHT22;37937;61.490;23.506;2023-02-26T01:03:36;-6.60;99.90
3478;DHT22;37937;61.490;23.506;2023-02-26T01:06:02;-6.60;99.90
3478;DHT22;37937;61.490;23.506;2023-02-26T01:08:37;-6.60;99.90
3478;DHT22;37937;61.490;23.506;2023-02-26T01:11:04;-6.60;99.90
3478;DHT22;37937;61.490;23.506;2023-02-26T01:13:30;-6.50;99.90
3478;DHT22;37937;61.490;23.506;2023-02-26T01:15:58;-6.60;99.90
3478;DHT22;37937;61.490;23.506;2023-02-26T01:18:27;-6.50;99.90
3478;DHT22;37937;61.490;23.506;2023-02-26T01:21:02;-6.60;99.90
3478;DHT22;37937;61.490;23.506;2023-02-26T01:23:30;-6.70;99.90
3478;DHT22;37937;61.490;23.506;2023-02-26T01:28:22;-6.70;99.90
3478;DHT22;37937;61.490;23.506;2023-02-26T01:30:48;-6.70;99.90
3478;DHT22;37937;61.490;23.506;2023-02-26T01:35:41;-6.70;99.90
3478;DHT22;37937;61.490;23.506;2023-02-26T01:38:29;-6.70;99.90
3478;DHT22;37937;61.490;23.506;2023-02-26T01:41:19;-6.70;99.90
3478;DHT22;37937;61.490;23.506;2023-02-26T01:48:50;-6.80;99.90
3478;DHT22;37937;61.490;23.506;2023-02-26T01:51:16;-6.80;99.90
3478;DHT22;37937;61.490;23.506;2023-02-26T01:53:42;-6.70;99.90
3478;DHT22;37937;61.490;23.506;2023-02-26T01:56:15;-6.70;99.90
3478;DHT22;37937;61.490;23.506;2023-02-26T01:58:41;-6.80;99.90
3478;DHT22;37937;61.490;23.506;2023-02-26T02:01:08;-6.80;99.90
3478;DHT22;37937;61.490;23.506;2023-02-26T02:03:36;-6.70;99.90
3478;DHT22;37937;61.490;23.506;2023-02-26T02:06:03;-6.70;99.90
3478;DHT22;37937;61.490;23.506;2023-02-26T02:08:31;-6.80;99.90
3478;DHT22;37937;61.490;23.506;2023-02-26T02:10:58;-6.80;99.90
3478;DHT22;37937;61.490;23.506;2023-02-26T02:15:59;-6.80;99.90
3478;DHT22;37937;61.490;23.506;2023-02-26T02:26:25;-7.00;99.90
3478;DHT22;37937;61.490;23.506;2023-02-26T02:39:32;-7.00;99.90
3478;DHT22;37937;61.490;23.506;2023-02-26T02:42:03;-6.90;99.90
3478;DHT22;37937;61.490;23.506;2023-02-26T02:44:31;-6.80;99.90
3478;DHT22;37937;61.490;23.506;2023-02-26T02:46:58;-6.90;99.90
3478;DHT22;37937;61.490;23.506;2023-02-26T02:49:33;-6.90;99.90
3478;DHT22;37937;61.490;23.506;2023-02-26T02:52:01;-6.90;99.90
3478;DHT22;37937;61.490;23.506;2023-02-26T02:57:17;-7.00;99.90
3478;DHT22;37937;61.490;23.506;2023-02-26T02:59:44;-6.90;99.90
3478;DHT22;37937;61.490;23.506;2023-02-26T03:04:42;-6.90;99.90
3478;DHT22;37937;61.490;23.506;2023-02-26T03:07:08;-6.90;99.90
3478;DHT22;37937;61.490;23.506;2023-02-26T03:09:34;-6.90;99.90
3478;DHT22;37937;61.490;23.506;2023-02-26T03:12:02;-6.90;99.90
3478;DHT22;37937;61.490;23.506;2023-02-26T03:14:28;-6.90;99.90
3478;DHT22;37937;61.490;23.506;2023-02-26T03:19:35;-6.90;99.90
3478;DHT22;37937;61.490;23.506;2023-02-26T03:22:07;-6.90;99.90
3478;DHT22;37937;61.490;23.506;2023-02-26T03:27:15;-6.90;99.90
3478;DHT22;37937;61.490;23.506;2023-02-26T03:32:12;-6.90;99.90
3478;DHT22;37937;61.490;23.506;2023-02-26T03:34:40;-7.00;99.90
3478;DHT22;37937;61.490;23.506;2023-02-26T03:37:25;-7.00;99.90
3478;DHT22;37937;61.490;23.506;2023-02-26T03:39:53;-7.00;99.90
3478;DHT22;37937;61.490;23.506;2023-02-26T03:42:37;-7.00;99.90
3478;DHT22;37937;61.490;23.506;2023-02-26T03:45:24;-7.10;99.90
3478;DHT22;37937;61.490;23.506;2023-02-26T03:47:51;-7.00;99.90
3478;DHT22;37937;61.490;23.506;2023-02-26T03:52:47;-7.00;99.90
3478;DHT22;37937;61.490;23.506;2023-02-26T03:55:15;-7.00;99.90
3478;DHT22;37937;61.490;23.506;2023-02-26T03:57:42;-7.00;99.90
3478;DHT22;37937;61.490;23.506;2023-02-26T04:00:09;-6.90;99.90
3478;DHT22;37937;61.490;23.506;2023-02-26T04:02:43;-6.90;99.90
3478;DHT22;37937;61.490;23.506;2023-02-26T04:05:11;-6.80;99.90
3478;DHT22;37937;61.490;23.506;2023-02-26T04:07:38;-6.90;99.90
3478;DHT22;37937;61.490;23.506;2023-02-26T04:10:04;-6.90;99.90
3478;DHT22;37937;61.490;23.506;2023-02-26T04:12:30;-6.90;99.90
3478;DHT22;37937;61.490;23.506;2023-02-26T04:14:56;-6.80;99.90
3478;DHT22;37937;61.490;23.506;2023-02-26T04:17:23;-6.90;99.90
3478;DHT22;37937;61.490;23.506;2023-02-26T04:19:48;-6.80;99.90
3478;DHT22;37937;61.490;23.506;2023-02-26T04:22:14;-6.90;99.90
3478;DHT22;37937;61.490;23.506;2023-02-26T04:24:40;-6.80;99.90
3478;DHT22;37937;61.490;23.506;2023-02-26T04:27:05;-6.80;99.90
3478;DHT22;37937;61.490;23.506;2023-02-26T04:29:31;-6.80;99.90
3478;DHT22;37937;61.490;23.506;2023-02-26T04:31:57;-6.90;99.90
3478;DHT22;37937;61.490;23.506;2023-02-26T04:34:23;-6.90;99.90
3478;DHT22;37937;61.490;23.506;2023-02-26T04:36:48;-6.90;99.90
3478;DHT22;37937;61.490;23.506;2023-02-26T04:39:14;-6.90;99.90
3478;DHT22;37937;61.490;23.506;2023-02-26T04:41:40;-6.90;99.90
3478;DHT22;37937;61.490;23.506;2023-02-26T04:44:06;-7.00;99.90
3478;DHT22;37937;61.490;23.506;2023-02-26T04:46:31;-7.00;99.90
3478;DHT22;37937;61.490;23.506;2023-02-26T04:48:57;-7.00;99.90
3478;DHT22;37937;61.490;23.506;2023-02-26T04:51:23;-7.00;99.90
3478;DHT22;37937;61.490;23.506;2023-02-26T04:53:49;-7.10;99.90
3478;DHT22;37937;61.490;23.506;2023-02-26T04:56:14;-7.20;99.90
3478;DHT22;37937;61.490;23.506;2023-02-26T04:58:40;-7.10;99.90
3478;DHT22;37937;61.490;23.506;2023-02-26T05:01:06;-7.20;99.90
3478;DHT22;37937;61.490;23.506;2023-02-26T05:03:32;-7.20;99.90
3478;DHT22;37937;61.490;23.506;2023-02-26T05:05:57;-7.20;99.90
3478;DHT22;37937;61.490;23.506;2023-02-26T05:08:23;-7.30;99.90
3478;DHT22;37937;61.490;23.506;2023-02-26T05:10:49;-7.30;99.90
3478;DHT22;37937;61.490;23.506;2023-02-26T05:13:15;-7.30;99.90
3478;DHT22;37937;61.490;23.506;2023-02-26T05:15:41;-7.30;99.90
3478;DHT22;37937;61.490;23.506;2023-02-26T05:18:06;-7.30;99.90
3478;DHT22;37937;61.490;23.506;2023-02-26T05:20:32;-7.40;99.90
3478;DHT22;37937;61.490;23.506;2023-02-26T05:22:58;-7.40;99.90
3478;DHT22;37937;61.490;23.506;2023-02-26T05:25:23;-7.50;99.90
3478;DHT22;37937;61.490;23.506;2023-02-26T05:27:49;-7.50;99.90
3478;DHT22;37937;61.490;23.506;2023-02-26T05:30:15;-7.50;99.90
3478;DHT22;37937;61.490;23.506;2023-02-26T05:32:41;-7.50;99.90
3478;DHT22;37937;61.490;23.506;2023-02-26T05:35:07;-7.50;99.90
3478;DHT22;37937;61.490;23.506;2023-02-26T05:37:32;-7.50;99.90
3478;DHT22;37937;61.490;23.506;2023-02-26T05:39:58;-7.60;99.90
3478;DHT22;37937;61.490;23.506;2023-02-26T05:42:24;-7.60;99.90
3478;DHT22;37937;61.490;23.506;2023-02-26T05:44:50;-7.60;99.90
3478;DHT22;37937;61.490;23.506;2023-02-26T05:47:16;-7.60;99.90
3478;DHT22;37937;61.490;23.506;2023-02-26T05:49:41;-7.60;99.90
3478;DHT22;37937;61.490;23.506;2023-02-26T05:52:07;-7.60;99.90
3478;DHT22;37937;61.490;23.506;2023-02-26T05:54:33;-7.60;99.90
3478;DHT22;37937;61.490;23.506;2023-02-26T05:56:58;-7.70;99.90
3478;DHT22;37937;61.490;23.506;2023-02-26T05:59:24;-7.70;99.90
3478;DHT22;37937;61.490;23.506;2023-02-26T06:01:50;-7.60;99.90
3478;DHT22;37937;61.490;23.506;2023-02-26T06:04:15;-7.70;99.90
3478;DHT22;37937;61.490;23.506;2023-02-26T06:06:41;-7.70;99.90
3478;DHT22;37937;61.490;23.506;2023-02-26T06:09:07;-7.70;99.90
3478;DHT22;37937;61.490;23.506;2023-02-26T06:11:33;-7.70;99.90
3478;DHT22;37937;61.490;23.506;2023-02-26T06:13:59;-7.70;99.90
3478;DHT22;37937;61.490;23.506;2023-02-26T06:16:24;-7.70;99.90
3478;DHT22;37937;61.490;23.506;2023-02-26T06:18:50;-7.70;99.90
3478;DHT22;37937;61.490;23.506;2023-02-26T06:21:16;-7.70;99.90
3478;DHT22;37937;61.490;23.506;2023-02-26T06:23:42;-7.70;99.90
3478;DHT22;37937;61.490;23.506;2023-02-26T06:26:07;-7.70;99.90
3478;DHT22;37937;61.490;23.506;2023-02-26T06:28:33;-7.70;99.90
3478;DHT22;37937;61.490;23.506;2023-02-26T06:30:59;-7.60;99.90
3478;DHT22;37937;61.490;23.506;2023-02-26T06:33:25;-7.70;99.90
3478;DHT22;37937;61.490;23.506;2023-02-26T06:35:50;-7.60;99.90
3478;DHT22;37937;61.490;23.506;2023-02-26T06:38:17;-7.70;99.90
3478;DHT22;37937;61.490;23.506;2023-02-26T06:40:43;-7.70;99.90
3478;DHT22;37937;61.490;23.506;2023-02-26T06:43:08;-7.70;99.90
3478;DHT22;37937;61.490;23.506;2023-02-26T06:45:34;-7.60;99.90
3478;DHT22;37937;61.490;23.506;2023-02-26T06:48:00;-7.60;99.90
3478;DHT22;37937;61.490;23.506;2023-02-26T06:50:26;-7.50;99.90
3478;DHT22;37937;61.490;23.506;2023-02-26T06:52:52;-7.50;99.90
3478;DHT22;37937;61.490;23.506;2023-02-26T06:55:17;-7.50;99.90
3478;DHT22;37937;61.490;23.506;2023-02-26T06:57:43;-7.50;99.90
3478;DHT22;37937;61.490;23.506;2023-02-26T07:00:09;-7.30;99.90
3478;DHT22;37937;61.490;23.506;2023-02-26T07:02:35;-7.40;99.90
3478;DHT22;37937;61.490;23.506;2023-02-26T07:05:00;-7.30;99.90
3478;DHT22;37937;61.490;23.506;2023-02-26T07:07:26;-7.40;99.90
3478;DHT22;37937;61.490;23.506;2023-02-26T07:09:52;-7.30;99.90
3478;DHT22;37937;61.490;23.506;2023-02-26T07:12:17;-7.20;99.90
3478;DHT22;37937;61.490;23.506;2023-02-26T07:14:43;-7.20;99.90
3478;DHT22;37937;61.490;23.506;2023-02-26T07:17:10;-7.00;99.90
3478;DHT22;37937;61.490;23.506;2023-02-26T07:19:48;-6.70;99.90
3478;DHT22;37937;61.490;23.506;2023-02-26T07:22:14;-6.60;99.90
3478;DHT22;37937;61.490;23.506;2023-02-26T07:24:40;-6.50;99.90
3478;DHT22;37937;61.490;23.506;2023-02-26T07:27:06;-6.30;99.90
3478;DHT22;37937;61.490;23.506;2023-02-26T07:29:32;-6.30;99.90
3478;DHT22;37937;61.490;23.506;2023-02-26T07:31:57;-6.30;99.90
3478;DHT22;37937;61.490;23.506;2023-02-26T07:34:23;-6.20;99.90
3478;DHT22;37937;61.490;23.506;2023-02-26T07:36:48;-6.10;99.90
3478;DHT22;37937;61.490;23.506;2023-02-26T07:39:14;-5.90;99.90
3478;DHT22;37937;61.490;23.506;2023-02-26T07:41:40;-5.90;99.90
3478;DHT22;37937;61.490;23.506;2023-02-26T07:44:05;-5.90;99.90
3478;DHT22;37937;61.490;23.506;2023-02-26T07:46:31;-5.90;99.90
3478;DHT22;37937;61.490;23.506;2023-02-26T07:48:57;-5.70;99.90
3478;DHT22;37937;61.490;23.506;2023-02-26T07:51:22;-5.60;99.90
3478;DHT22;37937;61.490;23.506;2023-02-26T07:53:48;-5.50;99.90
3478;DHT22;37937;61.490;23.506;2023-02-26T07:56:14;-5.60;99.90
3478;DHT22;37937;61.490;23.506;2023-02-26T07:58:39;-5.70;99.90
3478;DHT22;37937;61.490;23.506;2023-02-26T08:01:05;-5.50;99.90
3478;DHT22;37937;61.490;23.506;2023-02-26T08:03:31;-5.60;99.90
3478;DHT22;37937;61.490;23.506;2023-02-26T08:05:57;-5.50;99.90
3478;DHT22;37937;61.490;23.506;2023-02-26T08:08:25;-5.50;99.90
3478;DHT22;37937;61.490;23.506;2023-02-26T08:10:51;-5.30;99.90
3478;DHT22;37937;61.490;23.506;2023-02-26T08:13:16;-5.30;99.90
3478;DHT22;37937;61.490;23.506;2023-02-26T08:15:42;-4.90;99.90
3478;DHT22;37937;61.490;23.506;2023-02-26T08:18:08;-4.80;99.90
3478;DHT22;37937;61.490;23.506;2023-02-26T08:20:34;-4.90;99.90
3478;DHT22;37937;61.490;23.506;2023-02-26T08:23:00;-4.70;99.90
3478;DHT22;37937;61.490;23.506;2023-02-26T08:25:26;-4.50;99.90
3478;DHT22;37937;61.490;23.506;2023-02-26T08:27:51;-4.60;99.90
3478;DHT22;37937;61.490;23.506;2023-02-26T08:30:17;-4.80;99.90
3478;DHT22;37937;61.490;23.506;2023-02-26T08:32:43;-4.20;99.90
3478;DHT22;37937;61.490;23.506;2023-02-26T08:35:10;-4.20;99.90
3478;DHT22;37937;61.490;23.506;2023-02-26T08:37:36;-4.30;99.90
3478;DHT22;37937;61.490;23.506;2023-02-26T08:40:03;-4.30;99.90
3478;DHT22;37937;61.490;23.506;2023-02-26T08:42:29;-4.20;99.90
3478;DHT22;37937;61.490;23.506;2023-02-26T08:44:55;-4.10;99.90
3478;DHT22;37937;61.490;23.506;2023-02-26T08:47:20;-3.80;99.90
3478;DHT22;37937;61.490;23.506;2023-02-26T08:49:46;-3.60;99.90
3478;DHT22;37937;61.490;23.506;2023-02-26T08:52:12;-3.60;99.90
3478;DHT22;37937;61.490;23.506;2023-02-26T08:54:37;-3.70;99.90
3478;DHT22;37937;61.490;23.506;2023-02-26T08:57:03;-3.70;99.90
3478;DHT22;37937;61.490;23.506;2023-02-26T08:59:29;-3.50;99.90
3478;DHT22;37937;61.490;23.506;2023-02-26T09:01:54;-3.60;99.90
3478;DHT22;37937;61.490;23.506;2023-02-26T09:04:20;-3.70;99.90
3478;DHT22;37937;61.490;23.506;2023-02-26T09:06:46;-3.80;99.90
3478;DHT22;37937;61.490;23.506;2023-02-26T09:09:11;-3.30;99.90
3478;DHT22;37937;61.490;23.506;2023-02-26T09:11:37;-3.00;99.90
3478;DHT22;37937;61.490;23.506;2023-02-26T09:14:03;-3.00;99.90
3478;DHT22;37937;61.490;23.506;2023-02-26T09:16:29;-2.70;99.90
3478;DHT22;37937;61.490;23.506;2023-02-26T09:18:56;-2.40;99.90
3478;DHT22;37937;61.490;23.506;2023-02-26T09:21:22;-2.40;99.90
3478;DHT22;37937;61.490;23.506;2023-02-26T09:23:48;-2.50;99.90
3478;DHT22;37937;61.490;23.506;2023-02-26T09:26:13;-2.50;99.90
3478;DHT22;37937;61.490;23.506;2023-02-26T09:28:39;-2.40;99.90
3478;DHT22;37937;61.490;23.506;2023-02-26T09:31:05;-2.30;99.90
3478;DHT22;37937;61.490;23.506;2023-02-26T09:33:33;-2.20;99.90
3478;DHT22;37937;61.490;23.506;2023-02-26T09:36:00;-2.20;99.90
3478;DHT22;37937;61.490;23.506;2023-02-26T09:38:25;-1.90;99.90
3478;DHT22;37937;61.490;23.506;2023-02-26T09:40:55;-1.90;99.90
3478;DHT22;37937;61.490;23.506;2023-02-26T09:43:32;-2.30;99.90
3478;DHT22;37937;61.490;23.506;2023-02-26T09:48:49;-2.00;99.90
3478;DHT22;37937;61.490;23.506;2023-02-26T09:51:17;-1.80;99.90
3478;DHT22;37937;61.490;23.506;2023-02-26T09:53:44;-1.10;99.90
3478;DHT22;37937;61.490;23.506;2023-02-26T09:56:15;-1.10;99.90
3478;DHT22;37937;61.490;23.506;2023-02-26T09:58:42;-1.60;99.90
3478;DHT22;37937;61.490;23.506;2023-02-26T10:07:03;-1.70;99.90
3478;DHT22;37937;61.490;23.506;2023-02-26T10:12:13;-1.20;99.90
3478;DHT22;37937;61.490;23.506;2023-02-26T10:14:46;-1.10;99.90
3478;DHT22;37937;61.490;23.506;2023-02-26T10:19:43;-1.90;99.90
3478;DHT22;37937;61.490;23.506;2023-02-26T10:27:49;-2.30;99.90
3478;DHT22;37937;61.490;23.506;2023-02-26T10:32:49;-2.00;99.90
3478;DHT22;37937;61.490;23.506;2023-02-26T10:35:15;-2.50;99.90
3478;DHT22;37937;61.490;23.506;2023-02-26T10:37:52;-2.30;99.90
3478;DHT22;37937;61.490;23.506;2023-02-26T10:42:59;-2.30;99.90
3478;DHT22;37937;61.490;23.506;2023-02-26T10:50:38;-2.40;99.90
3478;DHT22;37937;61.490;23.506;2023-02-26T10:53:08;-1.80;99.90
3478;DHT22;37937;61.490;23.506;2023-02-26T10:55:40;-1.70;99.90
3478;DHT22;37937;61.490;23.506;2023-02-26T10:58:18;-2.30;99.90
3478;DHT22;37937;61.490;23.506;2023-02-26T11:00:46;-2.30;99.90
3478;DHT22;37937;61.490;23.506;2023-02-26T11:03:16;-2.60;99.90
3478;DHT22;37937;61.490;23.506;2023-02-26T11:05:43;-2.50;99.90
3478;DHT22;37937;61.490;23.506;2023-02-26T11:08:19;-3.00;99.90
3478;DHT22;37937;61.490;23.506;2023-02-26T11:10:50;-3.30;99.90
3478;DHT22;37937;61.490;23.506;2023-02-26T11:13:16;-3.10;99.90
3478;DHT22;37937;61.490;23.506;2023-02-26T11:15:42;-3.20;99.90
3478;DHT22;37937;61.490;23.506;2023-02-26T11:18:14;-3.40;99.90
3478;DHT22;37937;61.490;23.506;2023-02-26T11:20:41;-3.40;99.90
3478;DHT22;37937;61.490;23.506;2023-02-26T11:23:18;-3.70;99.90
3478;DHT22;37937;61.490;23.506;2023-02-26T11:25:45;-3.70;99.90
3478;DHT22;37937;61.490;23.506;2023-02-26T11:30:45;-3.80;99.90
3478;DHT22;37937;61.490;23.506;2023-02-26T11:33:23;-3.70;99.90
3478;DHT22;37937;61.490;23.506;2023-02-26T11:35:51;-3.40;99.90
3478;DHT22;37937;61.490;23.506;2023-02-26T11:38:21;-3.30;99.90
3478;DHT22;37937;61.490;23.506;2023-02-26T11:40:48;-3.30;99.90
3478;DHT22;37937;61.490;23.506;2023-02-26T11:43:17;-3.30;99.90
3478;DHT22;37937;61.490;23.506;2023-02-26T11:45:44;-3.30;99.90
3478;DHT22;37937;61.490;23.506;2023-02-26T11:48:12;-3.00;99.90
3478;DHT22;37937;61.490;23.506;2023-02-26T11:50:41;-3.20;99.90
3478;DHT22;37937;61.490;23.506;2023-02-26T11:53:14;-3.30;99.90
3478;DHT22;37937;61.490;23.506;2023-02-26T11:55:42;-3.30;99.90
3478;DHT22;37937;61.490;23.506;2023-02-26T11:58:15;-3.50;99.90
3478;DHT22;37937;61.490;23.506;2023-02-26T12:00:41;-3.50;99.90
3478;DHT22;37937;61.490;23.506;2023-02-26T12:03:13;-3.40;99.90
3478;DHT22;37937;61.490;23.506;2023-02-26T12:05:39;-3.30;99.90
3478;DHT22;37937;61.490;23.506;2023-02-26T12:08:10;-3.40;99.90
3478;DHT22;37937;61.490;23.506;2023-02-26T12:10:42;-3.40;99.90
3478;DHT22;37937;61.490;23.506;2023-02-26T12:21:22;-3.40;99.90
3478;DHT22;37937;61.490;23.506;2023-02-26T12:24:06;-3.40;99.90
3478;DHT22;37937;61.490;23.506;2023-02-26T12:31:48;-3.80;99.90
3478;DHT22;37937;61.490;23.506;2023-02-26T12:36:52;-3.80;99.90
3478;DHT22;37937;61.490;23.506;2023-02-26T12:39:42;-3.80;99.90
3478;DHT22;37937;61.490;23.506;2023-02-26T12:52:40;-3.90;99.90
3478;DHT22;37937;61.490;23.506;2023-02-26T12:58:06;-3.80;99.90
3478;DHT22;37937;61.490;23.506;2023-02-26T13:18:38;-3.90;99.90
3478;DHT22;37937;61.490;23.506;2023-02-26T13:23:51;-3.90;99.90
3478;DHT22;37937;61.490;23.506;2023-02-26T13:26:17;-4.00;99.90
3478;DHT22;37937;61.490;23.506;2023-02-26T13:31:42;-4.00;99.90
3478;DHT22;37937;61.490;23.506;2023-02-26T13:34:11;-4.00;99.90
3478;DHT22;37937;61.490;23.506;2023-02-26T13:36:38;-4.00;99.90
3478;DHT22;37937;61.490;23.506;2023-02-26T13:41:55;-3.90;99.90
3478;DHT22;37937;61.490;23.506;2023-02-26T13:44:27;-4.00;99.90
3478;DHT22;37937;61.490;23.506;2023-02-26T13:52:34;-4.00;99.90
3478;DHT22;37937;61.490;23.506;2023-02-26T13:55:01;-4.00;99.90
3478;DHT22;37937;61.490;23.506;2023-02-26T13:57:35;-4.00;99.90
3478;DHT22;37937;61.490;23.506;2023-02-26T14:00:09;-4.10;99.90
3478;DHT22;37937;61.490;23.506;2023-02-26T14:02:45;-4.10;99.90
3478;DHT22;37937;61.490;23.506;2023-02-26T14:10:43;-4.10;99.90
3478;DHT22;37937;61.490;23.506;2023-02-26T14:13:15;-4.20;99.90
3478;DHT22;37937;61.490;23.506;2023-02-26T14:15:47;-4.20;99.90
3478;DHT22;37937;61.490;23.506;2023-02-26T14:23:49;-4.20;99.90
3478;DHT22;37937;61.490;23.506;2023-02-26T14:26:17;-4.20;99.90
3478;DHT22;37937;61.490;23.506;2023-02-26T14:34:14;-4.30;99.90
3478;DHT22;37937;61.490;23.506;2023-02-26T14:36:43;-4.40;99.90
3478;DHT22;37937;61.490;23.506;2023-02-26T14:39:24;-4.40;99.90
3478;DHT22;37937;61.490;23.506;2023-02-26T14:41:52;-4.50;99.90
3478;DHT22;37937;61.490;23.506;2023-02-26T14:44:24;-4.40;99.90
3478;DHT22;37937;61.490;23.506;2023-02-26T14:46:50;-4.40;99.90
3478;DHT22;37937;61.490;23.506;2023-02-26T14:49:23;-4.50;99.90
3478;DHT22;37937;61.490;23.506;2023-02-26T14:52:05;-4.50;99.90
3478;DHT22;37937;61.490;23.506;2023-02-26T14:57:08;-4.50;99.90
3478;DHT22;37937;61.490;23.506;2023-02-26T14:59:56;-4.60;99.90
3478;DHT22;37937;61.490;23.506;2023-02-26T15:02:29;-4.60;99.90
3478;DHT22;37937;61.490;23.506;2023-02-26T15:07:47;-4.70;99.90
3478;DHT22;37937;61.490;23.506;2023-02-26T15:20:28;-5.00;99.90
3478;DHT22;37937;61.490;23.506;2023-02-26T15:25:34;-5.00;99.90
3478;DHT22;37937;61.490;23.506;2023-02-26T15:28:01;-5.00;99.90
3478;DHT22;37937;61.490;23.506;2023-02-26T15:30:29;-5.10;99.90
3478;DHT22;37937;61.490;23.506;2023-02-26T15:32:56;-5.10;99.90
3478;DHT22;37937;61.490;23.506;2023-02-26T15:35:23;-5.20;99.90
3478;DHT22;37937;61.490;23.506;2023-02-26T15:37:49;-5.20;99.90
3478;DHT22;37937;61.490;23.506;2023-02-26T15:40:15;-5.30;99.90
3478;DHT22;37937;61.490;23.506;2023-02-26T15:42:41;-5.30;99.90
3478;DHT22;37937;61.490;23.506;2023-02-26T15:45:50;-5.30;99.90
3478;DHT22;37937;61.490;23.506;2023-02-26T15:47:57;-5.50;99.90
3478;DHT22;37937;61.490;23.506;2023-02-26T15:50:24;-5.40;99.90
3478;DHT22;37937;61.490;23.506;2023-02-26T15:52:53;-5.50;99.90
3478;DHT22;37937;61.490;23.506;2023-02-26T15:55:20;-5.60;99.90
3478;DHT22;37937;61.490;23.506;2023-02-26T15:57:46;-5.60;99.90
3478;DHT22;37937;61.490;23.506;2023-02-26T16:00:15;-5.60;99.90
3478;DHT22;37937;61.490;23.506;2023-02-26T16:02:42;-5.70;99.90
3478;DHT22;37937;61.490;23.506;2023-02-26T16:05:10;-5.70;99.90
3478;DHT22;37937;61.490;23.506;2023-02-26T16:07:39;-5.80;99.90
3478;DHT22;37937;61.490;23.506;2023-02-26T16:10:06;-5.80;99.90
3478;DHT22;37937;61.490;23.506;2023-02-26T16:12:36;-5.80;99.90
3478;DHT22;37937;61.490;23.506;2023-02-26T16:15:08;-5.80;99.90
3478;DHT22;37937;61.490;23.506;2023-02-26T16:17:38;-5.80;99.90
3478;DHT22;37937;61.490;23.506;2023-02-26T16:20:05;-5.90;99.90
3478;DHT22;37937;61.490;23.506;2023-02-26T16:22:35;-5.90;99.90
3478;DHT22;37937;61.490;23.506;2023-02-26T16:27:28;-6.00;99.90
3478;DHT22;37937;61.490;23.506;2023-02-26T16:29:54;-6.00;99.90
3478;DHT22;37937;61.490;23.506;2023-02-26T16:32:21;-6.10;99.90
3478;DHT22;37937;61.490;23.506;2023-02-26T16:39:44;-6.20;99.90
3478;DHT22;37937;61.490;23.506;2023-02-26T16:42:14;-6.20;99.90
3478;DHT22;37937;61.490;23.506;2023-02-26T16:44:46;-6.20;99.90
3478;DHT22;37937;61.490;23.506;2023-02-26T16:47:12;-6.20;99.90
3478;DHT22;37937;61.490;23.506;2023-02-26T16:49:39;-6.20;99.90
3478;DHT22;37937;61.490;23.506;2023-02-26T16:52:06;-6.30;99.90
3478;DHT22;37937;61.490;23.506;2023-02-26T16:54:35;-6.30;99.90
3478;DHT22;37937;61.490;23.506;2023-02-26T16:57:05;-6.30;99.90
3478;DHT22;37937;61.490;23.506;2023-02-26T16:59:33;-6.30;99.90
3478;DHT22;37937;61.490;23.506;2023-02-26T17:02:04;-6.40;99.90
3478;DHT22;37937;61.490;23.506;2023-02-26T17:04:35;-6.40;99.90
3478;DHT22;37937;61.490;23.506;2023-02-26T17:07:04;-6.40;99.90
3478;DHT22;37937;61.490;23.506;2023-02-26T17:14:36;-6.50;99.90
3478;DHT22;37937;61.490;23.506;2023-02-26T17:17:04;-6.50;99.90
3478;DHT22;37937;61.490;23.506;2023-02-26T17:19:30;-6.50;99.90
3478;DHT22;37937;61.490;23.506;2023-02-26T17:21:56;-6.40;99.90
3478;DHT22;37937;61.490;23.506;2023-02-26T17:26:53;-6.30;99.90
3478;DHT22;37937;61.490;23.506;2023-02-26T17:29:20;-6.20;99.90
3478;DHT22;37937;61.490;23.506;2023-02-26T17:31:48;-6.20;99.90
3478;DHT22;37937;61.490;23.506;2023-02-26T17:34:13;-6.20;99.90
3478;DHT22;37937;61.490;23.506;2023-02-26T17:36:39;-6.20;99.90
3478;DHT22;37937;61.490;23.506;2023-02-26T17:39:05;-6.50;99.90
3478;DHT22;37937;61.490;23.506;2023-02-26T17:41:31;-6.70;99.90
3478;DHT22;37937;61.490;23.506;2023-02-26T17:43:58;-6.80;99.90
3478;DHT22;37937;61.490;23.506;2023-02-26T17:46:24;-6.80;99.90
3478;DHT22;37937;61.490;23.506;2023-02-26T17:48:50;-6.90;99.90
3478;DHT22;37937;61.490;23.506;2023-02-26T17:51:15;-7.00;99.90
3478;DHT22;37937;61.490;23.506;2023-02-26T17:53:41;-7.10;99.90
3478;DHT22;37937;61.490;23.506;2023-02-26T17:56:09;-7.10;99.90
3478;DHT22;37937;61.490;23.506;2023-02-26T17:58:35;-7.10;99.90
3478;DHT22;37937;61.490;23.506;2023-02-26T18:01:01;-7.10;99.90
3478;DHT22;37937;61.490;23.506;2023-02-26T18:03:28;-7.00;99.90
3478;DHT22;37937;61.490;23.506;2023-02-26T18:05:54;-7.00;99.90
3478;DHT22;37937;61.490;23.506;2023-02-26T18:08:22;-6.90;99.90
3478;DHT22;37937;61.490;23.506;2023-02-26T18:10:48;-7.00;99.90
3478;DHT22;37937;61.490;23.506;2023-02-26T18:13:14;-7.10;99.90
3478;DHT22;37937;61.490;23.506;2023-02-26T18:15:39;-7.10;99.90
3478;DHT22;37937;61.490;23.506;2023-02-26T18:18:06;-7.00;99.90
3478;DHT22;37937;61.490;23.506;2023-02-26T18:20:33;-6.90;99.90
3478;DHT22;37937;61.490;23.506;2023-02-26T18:22:59;-6.80;99.90
3478;DHT22;37937;61.490;23.506;2023-02-26T18:25:25;-6.70;99.90
3478;DHT22;37937;61.490;23.506;2023-02-26T18:27:52;-7.00;99.90
3478;DHT22;37937;61.490;23.506;2023-02-26T18:30:20;-7.10;99.90
3478;DHT22;37937;61.490;23.506;2023-02-26T18:32:46;-7.20;99.90
3478;DHT22;37937;61.490;23.506;2023-02-26T18:35:12;-7.10;99.90
3478;DHT22;37937;61.490;23.506;2023-02-26T18:37:37;-7.10;99.90
3478;DHT22;37937;61.490;23.506;2023-02-26T18:40:03;-7.10;99.90
3478;DHT22;37937;61.490;23.506;2023-02-26T18:42:29;-7.20;99.90
3478;DHT22;37937;61.490;23.506;2023-02-26T18:44:57;-7.40;99.90
3478;DHT22;37937;61.490;23.506;2023-02-26T18:47:22;-7.50;99.90
3478;DHT22;37937;61.490;23.506;2023-02-26T18:49:48;-7.40;99.90
3478;DHT22;37937;61.490;23.506;2023-02-26T18:52:14;-7.20;99.90
3478;DHT22;37937;61.490;23.506;2023-02-26T18:54:40;-7.50;99.90